createdAt,value
2022-08-17T00:00:34.182Z,99.90
2022-08-17T00:03:06.298Z,99.90
2022-08-17T00:05:41.168Z,99.90
2022-08-17T00:08:08.229Z,99.90
2022-08-17T00:10:35.529Z,99.90
2022-08-17T00:13:10.883Z,99.90
2022-08-17T00:15:37.921Z,99.90
2022-08-17T00:19:03.838Z,99.90
2022-08-17T00:20:53.287Z,99.90
2022-08-17T00:23:20.085Z,99.90
2022-08-17T00:25:47.648Z,99.90
2022-08-17T00:28:16.213Z,99.90
2022-08-17T00:30:51.061Z,99.90
2022-08-17T00:33:24.523Z,99.90
2022-08-17T00:35:51.976Z,99.90
2022-08-17T00:38:19.315Z,99.90
2022-08-17T00:40:50.519Z,99.90
2022-08-17T00:43:26.387Z,99.90
2022-08-17T00:45:53.569Z,99.90
2022-08-17T00:48:29.454Z,99.90
2022-08-17T00:51:02.917Z,99.90
2022-08-17T00:53:32.809Z,99.90
2022-08-17T00:56:03.046Z,99.90
2022-08-17T00:58:35.821Z,99.90
2022-08-17T01:01:06.601Z,99.90
2022-08-17T01:03:37.505Z,99.90
2022-08-17T01:06:06.187Z,99.90
2022-08-17T01:08:34.404Z,99.90
2022-08-17T01:11:02.473Z,99.90
2022-08-17T01:13:40.782Z,99.90
2022-08-17T01:16:08.427Z,99.90
2022-08-17T01:18:35.760Z,99.90
2022-08-17T01:21:10.221Z,99.90
2022-08-17T01:23:37.919Z,99.90
2022-08-17T01:26:06.287Z,99.90
2022-08-17T01:28:54.002Z,99.90
2022-08-17T01:31:22.957Z,99.90
2022-08-17T01:33:49.705Z,99.90
2022-08-17T01:36:16.450Z,99.90
2022-08-17T01:38:43.550Z,99.90
2022-08-17T01:41:14.451Z,99.90
2022-08-17T01:43:51.006Z,99.90
2022-08-17T01:46:23.281Z,99.90
2022-08-17T01:48:51.748Z,99.90
2022-08-17T01:51:19.886Z,99.90
2022-08-17T01:53:52.054Z,99.90
2022-08-17T01:56:23.043Z,99.90
2022-08-17T01:58:50.117Z,99.90
2022-08-17T02:01:22.941Z,99.90
2022-08-17T02:03:56.327Z,99.90
2022-08-17T02:06:29.367Z,99.90
2022-08-17T02:09:02.244Z,99.90
2022-08-17T02:11:33.184Z,99.90
2022-08-17T02:14:02.741Z,99.90
2022-08-17T02:16:37.288Z,99.90
2022-08-17T02:19:07.925Z,99.90
2022-08-17T02:21:36.118Z,99.90
2022-08-17T02:24:04.684Z,99.90
2022-08-17T02:26:31.998Z,99.90
2022-08-17T02:28:58.736Z,99.90
2022-08-17T02:31:25.434Z,99.90
2022-08-17T02:33:56.903Z,99.90
2022-08-17T02:36:31.830Z,99.90
2022-08-17T02:38:58.708Z,99.90
2022-08-17T02:41:25.659Z,99.90
2022-08-17T02:43:53.595Z,99.90
2022-08-17T02:46:20.367Z,99.90
2022-08-17T02:48:47.347Z,99.90
2022-08-17T02:51:14.415Z,99.90
2022-08-17T02:53:41.322Z,99.90
2022-08-17T02:56:08.378Z,99.90
2022-08-17T02:58:36.167Z,99.90
2022-08-17T03:01:07.852Z,99.90
2022-08-17T03:03:35.452Z,99.90
2022-08-17T03:06:03.657Z,99.90
2022-08-17T03:08:30.550Z,99.90
2022-08-17T03:10:57.557Z,99.90
2022-08-17T03:13:24.465Z,99.90
2022-08-17T03:15:51.692Z,99.90
2022-08-17T03:18:25.565Z,99.90
2022-08-17T03:20:59.127Z,99.90
2022-08-17T03:23:27.641Z,99.90
2022-08-17T03:25:57.093Z,99.90
2022-08-17T03:28:25.072Z,99.90
2022-08-17T03:30:52.545Z,99.90
2022-08-17T03:33:19.850Z,99.90
2022-08-17T03:35:46.794Z,99.90
2022-08-17T03:38:15.258Z,99.90
2022-08-17T03:40:56.674Z,99.90
2022-08-17T03:43:31.454Z,99.90
2022-08-17T03:46:33.265Z,99.90
2022-08-17T03:49:24.799Z,99.90
2022-08-17T03:52:10.974Z,99.90
2022-08-17T03:54:56.204Z,99.90
2022-08-17T03:57:23.736Z,99.90
2022-08-17T03:59:51.016Z,99.90
2022-08-17T04:02:24.177Z,99.90
2022-08-17T04:04:52.202Z,99.90
2022-08-17T04:07:20.415Z,99.90
2022-08-17T04:09:47.476Z,99.90
2022-08-17T04:12:19.607Z,99.90
2022-08-17T04:14:53.071Z,99.90
2022-08-17T04:17:24.112Z,99.90
2022-08-17T04:19:51.209Z,99.90
2022-08-17T04:22:31.262Z,99.90
2022-08-17T04:25:02.817Z,99.90
2022-08-17T04:27:29.616Z,99.90
2022-08-17T04:29:56.423Z,99.90
2022-08-17T04:32:59.279Z,99.90
2022-08-17T04:35:10.474Z,99.90
2022-08-17T04:37:37.281Z,99.90
2022-08-17T04:40:27.129Z,99.90
2022-08-17T04:43:02.777Z,99.90
2022-08-17T04:45:32.240Z,99.90
2022-08-17T04:48:00.958Z,99.90
2022-08-17T04:50:27.997Z,99.90
2022-08-17T04:52:56.501Z,99.90
2022-08-17T04:55:23.544Z,99.90
2022-08-17T04:57:50.280Z,99.90
2022-08-17T05:00:17.222Z,99.90
2022-08-17T05:02:50.934Z,99.90
2022-08-17T05:05:43.082Z,99.90
2022-08-17T05:08:09.897Z,99.90
2022-08-17T05:10:45.313Z,99.90
2022-08-17T05:13:16.224Z,99.90
2022-08-17T05:15:44.863Z,99.90
2022-08-17T05:18:12.506Z,99.90
2022-08-17T05:20:41.382Z,99.90
2022-08-17T05:23:11.115Z,99.90
2022-08-17T05:25:50.678Z,99.90
2022-08-17T05:28:24.170Z,99.90
2022-08-17T05:30:57.963Z,99.90
2022-08-17T05:33:28.040Z,99.90
2022-08-17T05:35:56.864Z,99.90
2022-08-17T05:38:25.830Z,99.90
2022-08-17T05:40:53.926Z,99.90
2022-08-17T05:43:24.202Z,99.90
2022-08-17T05:45:55.521Z,99.90
2022-08-17T05:48:39.116Z,99.90
2022-08-17T05:51:35.876Z,99.90
2022-08-17T05:54:25.867Z,99.90
2022-08-17T05:57:10.472Z,99.90
2022-08-17T05:59:58.670Z,99.90
2022-08-17T06:03:04.259Z,99.90
2022-08-17T06:05:51.450Z,99.90
2022-08-17T06:08:51.485Z,99.90
2022-08-17T06:11:22.785Z,99.90
2022-08-17T06:13:56.388Z,99.90
2022-08-17T06:16:34.383Z,99.90
2022-08-17T06:19:17.208Z,99.90
2022-08-17T06:21:47.916Z,99.90
2022-08-17T06:24:34.343Z,99.90
2022-08-17T06:27:38.944Z,99.90
2022-08-17T06:30:27.264Z,99.90
2022-08-17T06:33:01.283Z,99.90
2022-08-17T06:35:48.128Z,99.90
2022-08-17T06:38:41.333Z,99.70
2022-08-17T06:41:42.930Z,98.50
2022-08-17T06:44:43.402Z,98.60
2022-08-17T06:47:45.051Z,98.40
2022-08-17T06:50:21.365Z,97.90
2022-08-17T06:52:58.836Z,97.90
2022-08-17T06:55:37.892Z,98.10
2022-08-17T06:58:15.977Z,98.40
2022-08-17T07:00:46.930Z,98.60
2022-08-17T07:03:20.850Z,99.20
2022-08-17T07:06:12.425Z,99.20
2022-08-17T07:08:47.107Z,99.90
2022-08-17T07:11:19.290Z,99.90
2022-08-17T07:14:00.923Z,99.90
2022-08-17T07:16:39.572Z,99.90
2022-08-17T07:19:07.550Z,99.90
2022-08-17T07:22:20.625Z,99.90
2022-08-17T07:24:58.298Z,99.90
2022-08-17T07:27:50.931Z,99.90
2022-08-17T07:30:45.517Z,99.90
2022-08-17T07:33:58.491Z,99.90
2022-08-17T07:36:30.084Z,99.90
2022-08-17T07:38:58.367Z,99.90
2022-08-17T07:41:25.277Z,99.90
2022-08-17T07:44:15.295Z,99.90
2022-08-17T07:47:10.141Z,99.90
2022-08-17T07:49:41.097Z,99.90
2022-08-17T07:52:47.426Z,99.90
2022-08-17T07:54:59.179Z,99.90
2022-08-17T07:57:31.592Z,99.90
2022-08-17T08:00:01.662Z,99.90
2022-08-17T08:02:33.741Z,99.20
2022-08-17T08:05:12.914Z,98.90
2022-08-17T08:08:17.922Z,98.30
2022-08-17T08:10:59.489Z,98.50
2022-08-17T08:13:30.172Z,98.20
2022-08-17T08:16:20.547Z,97.00
2022-08-17T08:18:54.089Z,96.80
2022-08-17T08:21:49.104Z,96.80
2022-08-17T08:24:24.651Z,96.20
2022-08-17T08:27:16.001Z,95.40
2022-08-17T08:30:14.176Z,95.80
2022-08-17T08:32:55.321Z,95.40
2022-08-17T08:35:53.639Z,95.70
2022-08-17T08:38:27.208Z,95.00
2022-08-17T08:41:32.579Z,94.10
2022-08-17T08:44:13.549Z,93.80
2022-08-17T08:46:47.034Z,93.40
2022-08-17T08:50:02.833Z,93.00
2022-08-17T08:52:45.797Z,92.70
2022-08-17T08:55:21.025Z,92.30
2022-08-17T08:57:56.361Z,92.50
2022-08-17T09:00:26.652Z,92.40
2022-08-17T09:03:37.613Z,91.40
2022-08-17T09:06:32.616Z,92.00
2022-08-17T09:09:59.029Z,92.40
2022-08-17T09:12:55.298Z,92.20
2022-08-17T09:15:29.357Z,92.40
2022-08-17T09:18:59.087Z,91.90
2022-08-17T09:20:56.227Z,91.80
2022-08-17T09:23:34.198Z,91.00
2022-08-17T09:26:13.188Z,91.30
2022-08-17T09:28:44.763Z,91.40
2022-08-17T09:31:19.005Z,92.30
2022-08-17T09:33:48.892Z,91.80
2022-08-17T09:36:19.089Z,91.40
2022-08-17T09:39:13.112Z,91.40
2022-08-17T09:41:58.335Z,91.70
2022-08-17T09:44:47.311Z,91.20
2022-08-17T09:47:30.504Z,91.20
2022-08-17T09:50:08.811Z,91.00
2022-08-17T09:52:35.720Z,90.60
2022-08-17T09:55:02.610Z,89.80
2022-08-17T09:58:11.007Z,90.00
2022-08-17T10:00:46.976Z,89.00
2022-08-17T10:03:22.911Z,89.90
2022-08-17T10:06:07.707Z,89.60
2022-08-17T10:08:52.388Z,90.10
2022-08-17T10:12:09.257Z,89.70
2022-08-17T10:14:57.149Z,90.20
2022-08-17T10:17:37.888Z,90.60
2022-08-17T10:20:30.202Z,91.20
2022-08-17T10:23:24.995Z,91.20
2022-08-17T10:26:16.882Z,91.40
2022-08-17T10:28:53.453Z,91.60
2022-08-17T10:31:34.736Z,93.90
2022-08-17T10:34:20.636Z,97.00
2022-08-17T10:37:05.303Z,99.90
2022-08-17T10:39:52.139Z,99.90
2022-08-17T10:42:35.008Z,99.90
2022-08-17T10:45:18.406Z,99.90
2022-08-17T10:48:06.922Z,99.90
2022-08-17T10:51:07.415Z,99.90
2022-08-17T10:53:38.794Z,99.90
2022-08-17T10:56:13.357Z,99.90
2022-08-17T10:58:55.255Z,99.90
2022-08-17T11:02:04.133Z,99.90
2022-08-17T11:05:03.556Z,99.90
2022-08-17T11:07:49.235Z,99.90
2022-08-17T11:10:24.624Z,99.90
2022-08-17T11:12:59.233Z,99.90
2022-08-17T11:15:59.950Z,99.90
2022-08-17T11:18:56.679Z,99.60
2022-08-17T11:21:26.254Z,97.50
2022-08-17T11:24:11.712Z,98.00
2022-08-17T11:26:46.209Z,97.30
2022-08-17T11:29:28.117Z,97.30
2022-08-17T11:32:00.439Z,97.30
2022-08-17T11:34:29.917Z,96.40
2022-08-17T11:37:25.388Z,96.60
2022-08-17T11:40:05.935Z,94.70
2022-08-17T11:42:50.718Z,94.20
2022-08-17T11:45:54.844Z,93.40
2022-08-17T11:48:58.617Z,93.50
2022-08-17T11:51:54.283Z,92.50
2022-08-17T11:54:33.406Z,92.60
2022-08-17T11:57:21.425Z,92.20
2022-08-17T11:59:48.215Z,91.90
2022-08-17T12:02:31.770Z,91.60
2022-08-17T12:05:16.912Z,90.90
2022-08-17T12:07:57.736Z,91.10
2022-08-17T12:10:31.842Z,90.80
2022-08-17T12:13:04.346Z,90.90
2022-08-17T12:15:35.881Z,90.70
2022-08-17T12:18:02.607Z,90.70
2022-08-17T12:20:32.091Z,91.00
2022-08-17T12:23:06.565Z,90.40
2022-08-17T12:25:42.929Z,90.30
2022-08-17T12:28:28.867Z,89.80
2022-08-17T12:31:01.298Z,89.30
2022-08-17T12:33:28.858Z,88.90
2022-08-17T12:36:00.070Z,88.30
2022-08-17T12:38:32.263Z,88.30
2022-08-17T12:41:20.006Z,89.00
2022-08-17T12:44:15.408Z,89.50
2022-08-17T12:47:04.619Z,88.00
2022-08-17T12:49:35.557Z,89.50
2022-08-17T12:52:29.031Z,90.50
2022-08-17T12:55:08.229Z,93.00
2022-08-17T12:57:51.687Z,94.70
2022-08-17T13:00:24.930Z,95.40
2022-08-17T13:02:58.408Z,96.10
2022-08-17T13:05:25.152Z,94.10
2022-08-17T13:07:53.373Z,97.30
2022-08-17T13:10:32.456Z,94.60
2022-08-17T13:13:05.162Z,90.70
2022-08-17T13:15:35.075Z,92.10
2022-08-17T13:18:07.011Z,91.20
2022-08-17T13:20:35.078Z,87.70
2022-08-17T13:23:12.006Z,88.90
2022-08-17T13:25:39.481Z,86.70
2022-08-17T13:28:06.346Z,85.90
2022-08-17T13:30:33.679Z,86.20
2022-08-17T13:33:20.733Z,88.30
2022-08-17T13:36:06.383Z,87.30
2022-08-17T13:38:47.285Z,87.90
2022-08-17T13:41:36.698Z,86.60
2022-08-17T13:44:30.120Z,85.40
2022-08-17T13:46:57.375Z,85.40
2022-08-17T13:49:24.360Z,85.00
2022-08-17T13:52:31.372Z,84.80
2022-08-17T13:55:00.668Z,85.20
2022-08-17T13:57:27.733Z,84.70
2022-08-17T14:00:10.850Z,83.40
2022-08-17T14:02:37.653Z,84.00
2022-08-17T14:05:06.413Z,83.00
2022-08-17T14:07:37.324Z,83.70
2022-08-17T14:10:11.197Z,84.10
2022-08-17T14:12:40.403Z,80.90
2022-08-17T14:15:09.033Z,82.00
2022-08-17T14:17:38.906Z,82.20
2022-08-17T14:20:09.549Z,82.40
2022-08-17T14:22:38.742Z,83.10
2022-08-17T14:25:10.384Z,80.80
2022-08-17T14:27:47.132Z,80.30
2022-08-17T14:30:23.302Z,79.00
2022-08-17T14:32:51.881Z,78.10
2022-08-17T14:35:21.958Z,78.40
2022-08-17T14:37:50.050Z,78.10
2022-08-17T14:40:20.346Z,78.20
2022-08-17T14:42:47.292Z,78.90
2022-08-17T14:45:27.065Z,76.90
2022-08-17T14:48:01.023Z,77.80
2022-08-17T14:50:27.839Z,75.50
2022-08-17T14:52:56.247Z,74.50
2022-08-17T14:55:24.980Z,75.20
2022-08-17T14:57:51.943Z,73.60
2022-08-17T15:00:19.013Z,74.60
2022-08-17T15:02:53.840Z,74.20
2022-08-17T15:05:24.561Z,74.70
2022-08-17T15:07:52.804Z,73.90
2022-08-17T15:10:20.326Z,73.80
2022-08-17T15:12:47.740Z,72.60
2022-08-17T15:15:17.031Z,72.80
2022-08-17T15:17:45.910Z,71.70
2022-08-17T15:20:17.112Z,72.20
2022-08-17T15:22:44.804Z,69.40
2022-08-17T15:25:12.720Z,68.70
2022-08-17T15:27:40.273Z,68.50
2022-08-17T15:30:08.815Z,69.10
2022-08-17T15:32:38.515Z,69.60
2022-08-17T15:35:06.944Z,67.70
2022-08-17T15:37:33.735Z,66.60
2022-08-17T15:40:01.241Z,66.20
2022-08-17T15:42:29.187Z,65.20
2022-08-17T15:44:56.289Z,65.30
2022-08-17T15:47:24.835Z,67.40
2022-08-17T15:49:55.450Z,66.40
2022-08-17T15:52:27.927Z,65.80
2022-08-17T15:54:58.947Z,65.90
2022-08-17T15:57:26.894Z,66.70
2022-08-17T15:59:58.628Z,66.30
2022-08-17T16:03:14.822Z,66.30
2022-08-17T16:05:24.791Z,65.10
2022-08-17T16:07:52.728Z,67.80
2022-08-17T16:10:19.874Z,66.90
2022-08-17T16:12:48.920Z,65.20
2022-08-17T16:15:17.037Z,67.20
2022-08-17T16:17:43.930Z,67.80
2022-08-17T16:20:19.950Z,68.10
2022-08-17T16:22:49.733Z,65.60
2022-08-17T16:25:52.062Z,67.50
2022-08-17T16:28:15.802Z,66.70
2022-08-17T16:30:43.168Z,66.50
2022-08-17T16:33:15.019Z,67.00
2022-08-17T16:35:42.875Z,68.40
2022-08-17T16:38:10.806Z,67.90
2022-08-17T16:40:38.023Z,69.00
2022-08-17T16:43:10.563Z,68.50
2022-08-17T16:45:40.316Z,67.90
2022-08-17T16:48:08.624Z,69.60
2022-08-17T16:50:36.323Z,70.80
2022-08-17T16:53:14.029Z,69.50
2022-08-17T16:55:42.485Z,73.10
2022-08-17T16:58:09.239Z,73.60
2022-08-17T17:00:37.159Z,72.90
2022-08-17T17:03:19.566Z,72.40
2022-08-17T17:05:59.005Z,73.00
2022-08-17T17:08:30.846Z,72.10
2022-08-17T17:11:03.702Z,75.00
2022-08-17T17:13:43.259Z,73.70
2022-08-17T17:16:36.047Z,72.30
2022-08-17T17:19:10.145Z,72.60
2022-08-17T17:22:08.004Z,71.80
2022-08-17T17:24:57.319Z,73.00
2022-08-17T17:27:36.444Z,75.40
2022-08-17T17:30:24.216Z,79.40
2022-08-17T17:33:03.364Z,76.70
2022-08-17T17:35:53.976Z,78.10
2022-08-17T17:38:29.468Z,78.20
2022-08-17T17:41:02.902Z,80.50
2022-08-17T17:43:39.802Z,80.80
2022-08-17T17:46:27.815Z,80.20
2022-08-17T17:48:56.987Z,83.00
2022-08-17T17:52:06.777Z,81.40
2022-08-17T17:54:29.385Z,82.40
2022-08-17T17:57:22.242Z,81.80
2022-08-17T17:59:48.939Z,79.40
2022-08-17T18:02:47.411Z,79.00
2022-08-17T18:05:37.045Z,78.10
2022-08-17T18:08:31.880Z,78.80
2022-08-17T18:11:06.437Z,78.40
2022-08-17T18:13:50.111Z,78.70
2022-08-17T18:16:19.162Z,82.90
2022-08-17T18:18:52.043Z,82.30
2022-08-17T18:21:31.211Z,81.70
2022-08-17T18:24:01.210Z,83.70
2022-08-17T18:26:44.943Z,84.60
2022-08-17T18:29:31.908Z,84.90
2022-08-17T18:32:28.752Z,85.70
2022-08-17T18:35:02.900Z,87.90
2022-08-17T18:37:34.904Z,88.40
2022-08-17T18:40:16.789Z,88.60
2022-08-17T18:42:55.198Z,88.70
2022-08-17T18:45:34.218Z,88.20
2022-08-17T18:48:02.126Z,88.60
2022-08-17T18:50:39.544Z,90.00
2022-08-17T18:53:38.461Z,89.80
2022-08-17T18:56:42.376Z,90.30
2022-08-17T18:59:27.981Z,90.40
2022-08-17T19:02:24.848Z,91.20
2022-08-17T19:05:09.481Z,91.50
2022-08-17T19:07:42.738Z,91.10
2022-08-17T19:10:28.173Z,92.30
2022-08-17T19:13:23.958Z,92.70
2022-08-17T19:16:14.001Z,93.40
2022-08-17T19:18:52.734Z,93.70
2022-08-17T19:21:41.779Z,93.90
2022-08-17T19:24:19.544Z,93.60
2022-08-17T19:26:56.756Z,93.80
2022-08-17T19:29:27.100Z,93.70
2022-08-17T19:31:58.687Z,93.40
2022-08-17T19:34:33.175Z,93.10
2022-08-17T19:37:18.531Z,93.80
2022-08-17T19:40:04.281Z,94.80
2022-08-17T19:42:57.936Z,95.00
2022-08-17T19:45:35.655Z,95.20
2022-08-17T19:48:39.019Z,95.10
2022-08-17T19:51:15.444Z,95.40
2022-08-17T19:54:06.293Z,96.40
2022-08-17T19:57:01.665Z,96.90
2022-08-17T20:00:05.038Z,96.90
2022-08-17T20:02:43.346Z,97.10
2022-08-17T20:05:30.517Z,97.50
2022-08-17T20:08:14.925Z,97.00
2022-08-17T20:10:54.826Z,97.40
2022-08-17T20:13:35.102Z,97.30
2022-08-17T20:16:04.217Z,96.60
2022-08-17T20:18:47.638Z,96.20
2022-08-17T20:21:24.854Z,97.50
2022-08-17T20:24:18.352Z,98.00
2022-08-17T20:26:59.914Z,98.50
2022-08-17T20:29:54.042Z,98.50
2022-08-17T20:32:26.133Z,99.20
2022-08-17T20:35:16.754Z,99.80
2022-08-17T20:37:56.411Z,99.90
2022-08-17T20:40:27.166Z,99.90
2022-08-17T20:42:54.326Z,99.90
2022-08-17T20:45:21.208Z,99.90
2022-08-17T20:48:18.506Z,99.90
2022-08-17T20:50:50.605Z,99.90
2022-08-17T20:53:58.025Z,99.90
2022-08-17T20:56:48.900Z,99.90
2022-08-17T20:59:25.364Z,99.90
2022-08-17T21:02:18.082Z,99.90
2022-08-17T21:04:52.911Z,99.90
2022-08-17T21:07:43.224Z,99.90
2022-08-17T21:10:18.428Z,99.90
2022-08-17T21:12:54.014Z,99.90
2022-08-17T21:15:42.579Z,99.90
2022-08-17T21:18:40.389Z,99.90
2022-08-17T21:21:25.985Z,99.90
2022-08-17T21:24:19.284Z,99.90
2022-08-17T21:27:23.061Z,99.90
2022-08-17T21:30:01.545Z,99.90
2022-08-17T21:32:36.941Z,99.90
2022-08-17T21:35:26.076Z,99.90
2022-08-17T21:38:00.685Z,99.90
2022-08-17T21:40:31.124Z,99.90
2022-08-17T21:43:07.872Z,99.90
2022-08-17T21:45:38.799Z,99.90
2022-08-17T21:48:20.963Z,99.90
2022-08-17T21:51:12.129Z,99.90
2022-08-17T21:53:45.237Z,99.90
2022-08-17T21:56:21.061Z,99.90
2022-08-17T21:58:57.101Z,99.90
2022-08-17T22:01:27.287Z,99.90
2022-08-17T22:04:04.539Z,99.90
2022-08-17T22:06:36.573Z,99.90
2022-08-17T22:09:09.378Z,99.90
2022-08-17T22:11:52.615Z,99.90
2022-08-17T22:14:23.299Z,99.90
2022-08-17T22:17:05.897Z,99.90
2022-08-17T22:19:35.401Z,99.90
2022-08-17T22:22:28.375Z,99.90
2022-08-17T22:25:01.395Z,99.90
2022-08-17T22:27:45.701Z,99.90
2022-08-17T22:30:25.020Z,99.90
2022-08-17T22:32:52.017Z,99.90
2022-08-17T22:35:38.933Z,99.90
2022-08-17T22:38:20.877Z,99.90
2022-08-17T22:40:50.826Z,99.90
2022-08-17T22:43:21.274Z,99.90
2022-08-17T22:45:57.260Z,99.90
2022-08-17T22:48:27.826Z,99.90
2022-08-17T22:51:12.829Z,99.90
2022-08-17T22:54:31.843Z,99.90
2022-08-17T22:57:21.194Z,99.90
2022-08-17T22:59:50.940Z,99.90
2022-08-17T23:02:31.014Z,99.90
2022-08-17T23:05:10.251Z,99.90
2022-08-17T23:07:37.343Z,99.90
2022-08-17T23:10:06.387Z,99.90
2022-08-17T23:12:38.776Z,99.90
2022-08-17T23:15:19.247Z,99.90
2022-08-17T23:17:46.390Z,99.90
2022-08-17T23:20:15.623Z,99.90
2022-08-17T23:22:51.985Z,99.90
2022-08-17T23:25:26.765Z,99.90
2022-08-17T23:27:54.442Z,99.90
2022-08-17T23:30:25.542Z,99.90
2022-08-17T23:32:56.460Z,99.90
2022-08-17T23:35:40.013Z,99.90
2022-08-17T23:38:10.359Z,99.90
2022-08-17T23:40:37.899Z,99.90
2022-08-17T23:43:23.435Z,99.90
2022-08-17T23:45:53.475Z,99.90
2022-08-17T23:48:28.484Z,99.90
2022-08-17T23:51:09.690Z,99.90
2022-08-17T23:53:42.083Z,99.90
2022-08-17T23:56:11.192Z,99.90
2022-08-17T23:58:43.304Z,99.90
